Terminal Aerodrome Forecast
Issued by NWS Sioux Falls, SD

Home | Current Version | Previous Version | Text Only | Print | Product List | Glossary Off
Versions: 1 2 3 4 5 6 7 8 9 10 11 12 13

000
FTUS43 KFSD 161126
TAFFSD
TAF
KFSD 161126Z 1612/1712 VRB03KT P6SM MIFG SKC
     FM161300 18005KT P6SM SKC
     FM161600 18011KT P6SM SCT030
     FM170000 17005KT P6SM BKN040=

USA.gov is the U.S. government's official web portal to all federal, state and local government web resources and services.